createdAt,value
2024-04-11T00:00:34.980Z,25.24
2024-04-11T00:01:35.515Z,25.27
2024-04-11T00:02:35.106Z,25.27
2024-04-11T00:03:35.262Z,25.26
2024-04-11T00:04:35.197Z,25.27
2024-04-11T00:05:35.272Z,25.26
2024-04-11T00:06:35.231Z,25.26
2024-04-11T00:07:35.292Z,25.27
2024-04-11T00:08:35.346Z,25.26
2024-04-11T00:09:35.356Z,25.23
2024-04-11T00:10:35.477Z,25.23
2024-04-11T00:11:35.538Z,25.24
2024-04-11T00:12:35.636Z,25.26
2024-04-11T00:13:35.557Z,25.26
2024-04-11T00:14:35.610Z,25.24
2024-04-11T00:15:36.464Z,25.27
2024-04-11T00:16:35.718Z,25.26
2024-04-11T00:17:35.787Z,25.23
2024-04-11T00:18:50.274Z,25.21
2024-04-11T00:19:50.156Z,25.24
2024-04-11T00:20:50.182Z,25.24
2024-04-11T00:21:50.149Z,25.26
2024-04-11T00:22:50.153Z,25.24
2024-04-11T00:23:50.191Z,25.24
2024-04-11T00:24:50.160Z,25.23
2024-04-11T00:25:50.171Z,25.23
2024-04-11T00:26:50.232Z,25.24
2024-04-11T00:27:50.222Z,25.23
2024-04-11T00:28:50.254Z,25.24
2024-04-11T00:29:50.341Z,25.24
2024-04-11T00:30:50.344Z,25.26
2024-04-11T00:31:50.385Z,25.24
2024-04-11T00:32:50.748Z,25.23
2024-04-11T00:33:50.983Z,25.26
2024-04-11T00:34:50.541Z,25.21
2024-04-11T00:35:50.601Z,25.20
2024-04-11T00:36:50.616Z,25.23
2024-04-11T00:37:50.661Z,25.23
2024-04-11T00:38:50.736Z,25.21
2024-04-11T00:39:50.778Z,25.23
2024-04-11T00:40:50.803Z,25.24
2024-04-11T00:41:50.925Z,25.23
2024-04-11T00:42:50.881Z,25.21
2024-04-11T00:43:50.926Z,25.23
2024-04-11T00:44:50.978Z,25.23
2024-04-11T00:45:51.034Z,25.21
2024-04-11T00:46:51.105Z,25.18
2024-04-11T00:47:54.426Z,25.21
2024-04-11T00:48:51.153Z,25.21
2024-04-11T00:49:51.115Z,25.17
2024-04-11T00:50:51.148Z,25.23
2024-04-11T00:51:51.093Z,25.24
2024-04-11T00:52:51.115Z,25.23
2024-04-11T00:53:51.152Z,25.18
2024-04-11T00:54:51.130Z,25.23
2024-04-11T00:55:51.104Z,25.18
2024-04-11T00:56:51.206Z,25.18
2024-04-11T00:57:51.107Z,25.18
2024-04-11T00:58:51.119Z,25.20
2024-04-11T00:59:51.254Z,25.18
2024-04-11T01:00:51.152Z,25.21
2024-04-11T01:01:51.120Z,25.20
2024-04-11T01:02:51.234Z,25.20
2024-04-11T01:03:51.427Z,25.20
2024-04-11T01:04:51.205Z,25.20
2024-04-11T01:05:51.181Z,25.20
2024-04-11T01:06:51.122Z,25.20
2024-04-11T01:07:51.107Z,25.18
2024-04-11T01:08:51.153Z,25.20
2024-04-11T01:09:51.168Z,25.20
2024-04-11T01:10:51.149Z,25.18
2024-04-11T01:11:51.172Z,25.18
2024-04-11T01:12:51.106Z,25.18
2024-04-11T01:13:51.127Z,25.18
2024-04-11T01:14:51.692Z,25.18
2024-04-11T01:15:51.124Z,25.17
2024-04-11T01:16:51.122Z,25.20
2024-04-11T01:17:51.301Z,25.14
2024-04-11T01:18:51.181Z,25.18
2024-04-11T01:19:51.356Z,25.17
2024-04-11T01:20:51.138Z,25.18
2024-04-11T01:21:51.149Z,25.18
2024-04-11T01:22:51.131Z,25.17
2024-04-11T01:23:51.183Z,25.17
2024-04-11T01:24:51.122Z,25.17
2024-04-11T01:25:51.132Z,25.17
2024-04-11T01:26:51.244Z,25.16
2024-04-11T01:27:51.190Z,25.18
2024-04-11T01:28:51.240Z,25.17
2024-04-11T01:29:51.318Z,25.13
2024-04-11T01:30:51.333Z,25.17
2024-04-11T01:31:51.368Z,25.16
2024-04-11T01:32:51.548Z,25.16
2024-04-11T01:33:51.585Z,25.18
2024-04-11T01:34:51.616Z,25.17
2024-04-11T01:35:51.642Z,25.16
2024-04-11T01:36:51.610Z,25.16
2024-04-11T01:37:51.651Z,25.18
2024-04-11T01:38:51.790Z,25.16
2024-04-11T01:39:51.761Z,25.14
2024-04-11T01:40:51.834Z,25.16
2024-04-11T01:41:51.872Z,25.17
2024-04-11T01:42:51.888Z,25.16
2024-04-11T01:43:51.939Z,25.18
2024-04-11T01:44:52.094Z,25.16
2024-04-11T01:45:52.051Z,25.13
2024-04-11T01:46:52.090Z,25.16
2024-04-11T01:47:52.212Z,25.13
2024-04-11T01:48:52.274Z,25.17
2024-04-11T01:49:52.219Z,25.14
2024-04-11T01:50:52.348Z,25.14
2024-04-11T01:51:52.320Z,25.16
2024-04-11T01:52:52.365Z,25.13
2024-04-11T01:53:52.466Z,25.14
2024-04-11T01:54:52.482Z,25.17
2024-04-11T01:55:52.517Z,25.16
2024-04-11T01:56:52.585Z,25.11
2024-04-11T01:57:52.598Z,25.14
2024-04-11T01:58:52.676Z,25.14
2024-04-11T01:59:52.736Z,25.13
2024-04-11T02:00:52.781Z,25.13
2024-04-11T02:01:52.855Z,25.13
2024-04-11T02:02:52.906Z,25.10
2024-04-11T02:03:53.138Z,25.13
2024-04-11T02:04:53.003Z,25.14
2024-04-11T02:05:53.063Z,25.14
2024-04-11T02:06:53.027Z,25.13
2024-04-11T02:07:53.082Z,25.11
2024-04-11T02:08:53.243Z,25.13
2024-04-11T02:09:53.176Z,25.11
2024-04-11T02:10:53.272Z,25.13
2024-04-11T02:11:53.451Z,25.14
2024-04-11T02:12:53.328Z,25.11
2024-04-11T02:13:53.382Z,25.10
2024-04-11T02:14:53.445Z,25.11
2024-04-11T02:15:53.477Z,25.13
2024-04-11T02:16:53.659Z,25.11
2024-04-11T02:17:53.591Z,25.13
2024-04-11T02:18:53.693Z,25.16
2024-04-11T02:19:53.659Z,25.11
2024-04-11T02:20:53.749Z,25.13
2024-04-11T02:21:56.025Z,25.11
2024-04-11T02:22:53.762Z,25.10
2024-04-11T02:23:53.788Z,25.11
2024-04-11T02:24:53.756Z,25.10
2024-04-11T02:25:53.779Z,25.10
2024-04-11T02:26:53.813Z,25.10
2024-04-11T02:27:53.765Z,25.11
2024-04-11T02:28:53.774Z,25.11
2024-04-11T02:29:53.816Z,25.11
2024-04-11T02:30:53.825Z,25.11
2024-04-11T02:31:53.801Z,25.09
2024-04-11T02:32:53.933Z,25.09
2024-04-11T02:33:53.981Z,25.09
2024-04-11T02:34:53.835Z,25.10
2024-04-11T02:35:53.831Z,25.11
2024-04-11T02:36:53.795Z,25.09
2024-04-11T02:37:53.796Z,25.10
2024-04-11T02:38:53.859Z,25.09
2024-04-11T02:39:53.778Z,25.09
2024-04-11T02:40:53.785Z,25.10
2024-04-11T02:41:53.851Z,25.07
2024-04-11T02:42:53.797Z,25.07
2024-04-11T02:43:53.782Z,25.11
2024-04-11T02:44:53.817Z,25.10
2024-04-11T02:45:53.801Z,25.07
2024-04-11T02:46:53.835Z,25.09
2024-04-11T02:47:54.019Z,25.07
2024-04-11T02:48:53.929Z,25.09
2024-04-11T02:49:53.803Z,25.09
2024-04-11T02:50:53.821Z,25.09
2024-04-11T02:51:53.791Z,25.10
2024-04-11T02:52:53.800Z,25.10
2024-04-11T02:53:53.818Z,25.07
2024-04-11T02:54:53.826Z,25.09
2024-04-11T02:55:53.789Z,25.09
2024-04-11T02:56:53.824Z,25.09
2024-04-11T02:57:53.794Z,25.09
2024-04-11T02:58:53.804Z,25.09
2024-04-11T02:59:53.852Z,25.07
2024-04-11T03:00:54.002Z,25.07
2024-04-11T03:01:53.908Z,25.07
2024-04-11T03:02:53.974Z,25.09
2024-04-11T03:03:54.052Z,25.05
2024-04-11T03:04:53.942Z,25.06
2024-04-11T03:05:53.906Z,25.07
2024-04-11T03:06:53.899Z,25.06
2024-04-11T03:07:53.899Z,25.07
2024-04-11T03:08:53.971Z,25.07
2024-04-11T03:09:53.917Z,25.06
2024-04-11T03:10:53.895Z,25.06
2024-04-11T03:11:53.934Z,25.09
2024-04-11T03:12:53.991Z,25.07
2024-04-11T03:13:53.908Z,25.06
2024-04-11T03:14:53.956Z,25.06
2024-04-11T03:15:53.950Z,25.05
2024-04-11T03:16:53.972Z,25.06
2024-04-11T03:17:54.015Z,25.03
2024-04-11T03:18:54.025Z,25.07
2024-04-11T03:19:53.992Z,25.06
2024-04-11T03:20:54.063Z,25.05
2024-04-11T03:21:54.068Z,25.06
2024-04-11T03:22:54.144Z,25.06
2024-04-11T03:23:54.263Z,25.07
2024-04-11T03:24:54.188Z,25.06
2024-04-11T03:25:54.232Z,25.06
2024-04-11T03:26:54.329Z,25.05
2024-04-11T03:27:54.343Z,25.06
2024-04-11T03:28:54.375Z,25.05
2024-04-11T03:29:54.462Z,25.06
2024-04-11T03:30:54.466Z,25.06
2024-04-11T03:31:54.508Z,25.05
2024-04-11T03:32:54.663Z,25.03
2024-04-11T03:33:54.794Z,25.06
2024-04-11T03:34:54.647Z,25.05
2024-04-11T03:35:54.731Z,25.06
2024-04-11T03:36:54.716Z,25.06
2024-04-11T03:37:54.763Z,25.05
2024-04-11T03:38:54.873Z,25.03
2024-04-11T03:39:54.847Z,25.05
2024-04-11T03:40:56.639Z,25.06
2024-04-11T03:41:54.991Z,25.06
2024-04-11T03:42:54.989Z,25.03
2024-04-11T03:43:55.033Z,25.06
2024-04-11T03:44:55.118Z,25.05
2024-04-11T03:45:55.131Z,25.05
2024-04-11T03:46:55.271Z,25.06
2024-04-11T03:47:55.406Z,25.07
2024-04-11T03:48:55.436Z,25.06
2024-04-11T03:49:55.322Z,25.07
2024-04-11T03:50:55.420Z,25.07
2024-04-11T03:51:55.396Z,25.07
2024-04-11T03:52:55.504Z,25.07
2024-04-11T03:53:55.875Z,25.09
2024-04-11T03:54:55.565Z,25.10
2024-04-11T03:55:55.613Z,25.10
2024-04-11T03:56:55.696Z,25.10
2024-04-11T03:57:55.718Z,25.11
2024-04-11T03:58:55.786Z,25.10
2024-04-11T03:59:55.859Z,25.14
2024-04-11T04:00:55.925Z,25.13
2024-04-11T04:01:55.979Z,25.14
2024-04-11T04:02:56.134Z,25.13
2024-04-11T04:03:56.242Z,25.14
2024-04-11T04:04:56.183Z,25.11
2024-04-11T04:05:56.269Z,25.14
2024-04-11T04:06:56.263Z,25.16
2024-04-11T04:07:56.294Z,25.16
2024-04-11T04:08:56.540Z,25.17
2024-04-11T04:09:56.409Z,25.16
2024-04-11T04:10:56.457Z,25.16
2024-04-11T04:11:56.656Z,25.17
2024-04-11T04:12:56.574Z,25.18
2024-04-11T04:13:56.655Z,25.18
2024-04-11T04:14:56.752Z,25.17
2024-04-11T04:15:56.795Z,25.18
2024-04-11T04:16:56.797Z,25.17
2024-04-11T04:17:56.903Z,25.18
2024-04-11T04:18:56.945Z,25.18
2024-04-11T04:19:56.980Z,25.16
2024-04-11T04:20:57.089Z,25.20
2024-04-11T04:21:57.105Z,25.18
2024-04-11T04:22:57.154Z,25.18
2024-04-11T04:23:57.339Z,25.20
2024-04-11T04:24:57.269Z,25.21
2024-04-11T04:25:57.323Z,25.20
2024-04-11T04:26:57.464Z,25.21
2024-04-11T04:27:57.423Z,25.20
2024-04-11T04:28:57.504Z,25.21
2024-04-11T04:29:57.574Z,25.23
2024-04-11T04:30:58.598Z,25.21
2024-04-11T04:31:57.638Z,25.24
2024-04-11T04:32:57.951Z,25.21
2024-04-11T04:33:57.971Z,25.23
2024-04-11T04:34:57.806Z,25.21
2024-04-11T04:35:57.930Z,25.21
2024-04-11T04:36:57.884Z,25.23
2024-04-11T04:37:57.931Z,25.21
2024-04-11T04:38:58.084Z,25.21
2024-04-11T04:39:58.032Z,25.23
2024-04-11T04:40:58.054Z,25.23
2024-04-11T04:41:58.161Z,25.24
2024-04-11T04:42:58.162Z,25.21
2024-04-11T04:43:58.231Z,25.21
2024-04-11T04:44:58.307Z,25.23
2024-04-11T04:45:58.304Z,25.24
2024-04-11T04:46:58.390Z,25.23
2024-04-11T04:47:58.659Z,25.24
2024-04-11T04:48:58.545Z,25.23
2024-04-11T04:50:05.803Z,25.20
2024-04-11T04:51:05.926Z,25.24
2024-04-11T04:52:05.780Z,25.23
2024-04-11T04:53:05.826Z,25.26
2024-04-11T04:54:06.053Z,25.23
2024-04-11T04:55:05.911Z,25.21
2024-04-11T04:56:07.811Z,25.23
2024-04-11T04:57:06.025Z,25.26
2024-04-11T04:58:05.870Z,25.26
2024-04-11T04:59:05.861Z,25.24
2024-04-11T05:00:05.920Z,25.24
2024-04-11T05:01:05.969Z,25.24
2024-04-11T05:02:05.948Z,25.26
2024-04-11T05:03:06.035Z,25.26
2024-04-11T05:04:06.192Z,25.24
2024-04-11T05:05:06.022Z,25.24
2024-04-11T05:06:06.125Z,25.24
2024-04-11T05:07:05.954Z,25.28
2024-04-11T05:08:05.954Z,25.27
2024-04-11T05:09:06.056Z,25.26
2024-04-11T05:10:06.898Z,25.26
2024-04-11T05:11:06.086Z,25.28
2024-04-11T05:12:06.179Z,25.28
2024-04-11T05:13:05.964Z,25.27
2024-04-11T05:14:05.961Z,25.28
2024-04-11T05:15:06.046Z,25.28
2024-04-11T05:16:06.061Z,25.28
2024-04-11T05:17:05.980Z,25.26
2024-04-11T05:18:06.097Z,25.28
2024-04-11T05:19:06.202Z,25.27
2024-04-11T05:20:06.086Z,25.28
2024-04-11T05:21:06.215Z,25.28
2024-04-11T05:22:06.126Z,25.28
2024-04-11T05:23:06.154Z,25.28
2024-04-11T05:24:06.311Z,25.28
2024-04-11T05:25:06.139Z,25.28
2024-04-11T05:26:06.124Z,25.28
2024-04-11T05:27:06.284Z,25.31
2024-04-11T05:28:06.120Z,25.31
2024-04-11T05:29:06.117Z,25.28
2024-04-11T05:30:06.217Z,25.31
2024-04-11T05:31:06.139Z,25.33
2024-04-11T05:32:06.142Z,25.31
2024-04-11T05:33:06.476Z,25.31
2024-04-11T05:34:06.183Z,25.31
2024-04-11T05:35:06.138Z,25.31
2024-04-11T05:36:06.322Z,25.36
2024-04-11T05:37:06.130Z,25.33
2024-04-11T05:38:06.122Z,25.34
2024-04-11T05:39:06.391Z,25.37
2024-04-11T05:40:06.180Z,25.37
2024-04-11T05:41:06.129Z,25.37
2024-04-11T05:42:06.299Z,25.37
2024-04-11T05:43:07.072Z,25.38
2024-04-11T05:44:06.137Z,25.38
2024-04-11T05:45:06.256Z,25.40
2024-04-11T05:46:06.221Z,25.41
2024-04-11T05:47:06.288Z,25.41
2024-04-11T05:48:09.451Z,25.42
2024-04-11T05:49:07.590Z,25.47
2024-04-11T05:50:06.320Z,25.47
2024-04-11T05:51:06.445Z,25.48
2024-04-11T05:52:06.315Z,25.47
2024-04-11T05:53:06.315Z,25.33
2024-04-11T05:54:06.726Z,25.06
2024-04-11T05:55:06.357Z,24.83
2024-04-11T05:56:06.351Z,24.61
2024-04-11T05:57:06.444Z,24.30
2024-04-11T05:58:06.364Z,23.89
2024-04-11T05:59:06.358Z,23.54
2024-04-11T06:00:06.604Z,23.20
2024-04-11T06:01:06.670Z,22.93
2024-04-11T06:02:06.706Z,22.65
2024-04-11T06:03:06.754Z,22.38
2024-04-11T06:04:06.935Z,22.00
2024-04-11T06:05:06.860Z,21.79
2024-04-11T06:06:07.034Z,21.65
2024-04-11T06:07:07.051Z,21.44
2024-04-11T06:08:07.932Z,21.25
2024-04-11T06:09:07.233Z,21.00
2024-04-11T06:10:07.239Z,20.90
2024-04-11T06:11:07.382Z,20.76
2024-04-11T06:12:07.379Z,20.52
2024-04-11T06:13:07.413Z,20.40
2024-04-11T06:14:07.396Z,20.33
2024-04-11T06:15:07.588Z,20.19
2024-04-11T06:16:07.574Z,20.15
2024-04-11T06:17:07.525Z,20.02
2024-04-11T06:18:07.616Z,20.00
2024-04-11T06:19:07.636Z,19.88
2024-04-11T06:20:07.668Z,19.87
2024-04-11T06:21:07.822Z,19.78
2024-04-11T06:22:07.789Z,19.78
2024-04-11T06:23:07.855Z,19.72
2024-04-11T06:24:40.564Z,19.72
2024-04-11T06:25:40.582Z,19.69
2024-04-11T06:26:40.591Z,19.66
2024-04-11T06:27:40.589Z,19.66
2024-04-11T06:28:40.998Z,19.60
2024-04-11T06:29:40.623Z,19.53
2024-04-11T06:30:40.612Z,19.53
2024-04-11T06:31:41.116Z,19.45
2024-04-11T06:32:40.711Z,19.35
2024-04-11T06:33:40.714Z,19.28
2024-04-11T06:34:40.649Z,19.23
2024-04-11T06:35:40.603Z,19.22
2024-04-11T06:36:40.708Z,19.21
2024-04-11T06:37:40.585Z,19.22
2024-04-11T06:38:40.992Z,19.18
2024-04-11T06:39:40.593Z,19.07
2024-04-11T06:40:40.577Z,19.08
2024-04-11T06:41:40.618Z,19.11
2024-04-11T06:42:40.594Z,19.07
2024-04-11T06:43:40.569Z,19.04
2024-04-11T06:44:40.604Z,19.00
2024-04-11T06:45:40.604Z,18.91
2024-04-11T06:46:40.713Z,18.81
2024-04-11T06:47:43.758Z,18.83
2024-04-11T06:48:41.762Z,18.78
2024-04-11T06:49:40.710Z,18.74
2024-04-11T06:50:40.734Z,18.77
2024-04-11T06:51:40.741Z,18.73
2024-04-11T06:52:40.727Z,18.74
2024-04-11T06:53:40.878Z,18.77
2024-04-11T06:54:40.745Z,18.77
2024-04-11T06:55:40.743Z,18.84
2024-04-11T06:56:40.812Z,18.87
2024-04-11T06:57:40.710Z,19.00
2024-04-11T06:58:40.715Z,19.11
2024-04-11T06:59:40.719Z,19.25
2024-04-11T07:00:40.782Z,19.45
2024-04-11T07:01:41.909Z,19.64
2024-04-11T07:02:40.802Z,19.83
2024-04-11T07:03:41.647Z,20.00
2024-04-11T07:04:40.708Z,20.14
2024-04-11T07:05:40.812Z,20.33
2024-04-11T07:06:40.717Z,20.52
2024-04-11T07:07:40.750Z,20.67
2024-04-11T07:08:40.752Z,20.81
2024-04-11T07:09:40.848Z,20.97
2024-04-11T07:10:40.787Z,21.11
2024-04-11T07:11:40.750Z,21.19
2024-04-11T07:12:40.737Z,21.35
2024-04-11T07:13:40.732Z,21.45
2024-04-11T07:14:40.739Z,21.55
2024-04-11T07:15:40.784Z,21.63
2024-04-11T07:16:40.792Z,21.74
2024-04-11T07:17:40.808Z,21.79
2024-04-11T07:18:40.724Z,21.89
2024-04-11T07:19:40.747Z,22.00
2024-04-11T07:20:40.796Z,22.07
2024-04-11T07:21:40.776Z,22.15
2024-04-11T07:22:40.893Z,22.15
2024-04-11T07:23:41.029Z,22.21
2024-04-11T07:24:41.146Z,22.27
2024-04-11T07:25:41.265Z,22.34
2024-04-11T07:26:41.395Z,22.35
2024-04-11T07:27:41.461Z,22.44
2024-04-11T07:28:41.597Z,22.48
2024-04-11T07:29:41.751Z,22.58
2024-04-11T07:30:41.834Z,22.59
2024-04-11T07:31:42.000Z,22.65
2024-04-11T07:32:42.090Z,22.72
2024-04-11T07:33:42.395Z,22.74
2024-04-11T07:34:42.211Z,22.86
2024-04-11T07:35:42.335Z,22.93
2024-04-11T07:36:42.382Z,23.01
2024-04-11T07:37:42.412Z,23.06
2024-04-11T07:38:42.479Z,23.11
2024-04-11T07:39:42.532Z,23.20
2024-04-11T07:40:42.608Z,23.24
2024-04-11T07:41:42.710Z,23.29
2024-04-11T07:42:42.735Z,23.34
2024-04-11T07:43:42.804Z,23.38
2024-04-11T07:44:42.884Z,23.38
2024-04-11T07:45:42.879Z,23.46
2024-04-11T07:46:51.088Z,23.52
2024-04-11T07:47:50.868Z,23.46
2024-04-11T07:48:44.001Z,23.35
2024-04-11T07:49:43.454Z,23.41
2024-04-11T07:50:42.982Z,23.41
2024-04-11T07:51:42.950Z,23.38
2024-04-11T07:52:42.960Z,23.40
2024-04-11T07:53:43.004Z,23.35
2024-04-11T07:54:47.335Z,23.31
2024-04-11T07:55:43.969Z,23.28
2024-04-11T07:56:43.004Z,23.27
2024-04-11T07:57:42.970Z,23.25
2024-04-11T07:58:42.965Z,23.29
2024-04-11T07:59:43.338Z,23.25
2024-04-11T08:00:43.003Z,23.25
2024-04-11T08:01:43.027Z,23.21
2024-04-11T08:02:43.009Z,23.22
2024-04-11T08:03:43.000Z,23.21
2024-04-11T08:04:43.004Z,23.18
2024-04-11T08:05:43.038Z,23.20
2024-04-11T08:06:43.138Z,23.20
2024-04-11T08:07:43.024Z,23.20
2024-04-11T08:08:43.075Z,23.20
2024-04-11T08:09:43.031Z,23.20
2024-04-11T08:10:43.076Z,23.18
2024-04-11T08:11:43.225Z,23.18
2024-04-11T08:12:43.212Z,23.18
2024-04-11T08:13:45.868Z,23.15
2024-04-11T08:14:43.504Z,23.15
2024-04-11T08:15:44.553Z,23.11
2024-04-11T08:16:43.399Z,23.13
2024-04-11T08:17:43.372Z,23.13
2024-04-11T08:18:43.319Z,23.13
2024-04-11T08:19:51.716Z,23.11
2024-04-11T08:20:44.361Z,23.13
2024-04-11T08:21:43.344Z,23.13
2024-04-11T08:22:43.342Z,23.10
2024-04-11T08:23:43.378Z,23.10
2024-04-11T08:24:43.367Z,23.11
2024-04-11T08:25:43.363Z,23.13
2024-04-11T08:26:43.355Z,23.13
2024-04-11T08:27:43.418Z,23.13
2024-04-11T08:28:43.389Z,23.15
2024-04-11T08:29:43.395Z,23.11
2024-04-11T08:30:43.363Z,23.14
2024-04-11T08:31:43.389Z,23.11
2024-04-11T08:32:43.442Z,23.15
2024-04-11T08:33:43.510Z,23.15
2024-04-11T08:34:43.514Z,23.15
2024-04-11T08:35:43.582Z,23.14
2024-04-11T08:36:43.632Z,23.17
2024-04-11T08:37:43.718Z,23.17
2024-04-11T08:38:43.822Z,23.17
2024-04-11T08:39:43.867Z,23.18
2024-04-11T08:40:43.945Z,23.18
2024-04-11T08:41:44.036Z,23.11
2024-04-11T08:42:44.081Z,23.15
2024-04-11T08:43:44.209Z,23.13
2024-04-11T08:44:44.272Z,23.17
2024-04-11T08:45:44.734Z,23.24
2024-04-11T08:46:44.349Z,23.21
2024-04-11T08:47:44.453Z,23.32
2024-04-11T08:48:44.656Z,23.40
2024-04-11T08:49:46.506Z,23.45
2024-04-11T08:50:44.663Z,23.52
2024-04-11T08:51:44.545Z,23.59
2024-04-11T08:52:44.404Z,23.63
2024-04-11T08:53:55.459Z,23.70
2024-04-11T08:54:45.399Z,23.73
2024-04-11T08:55:44.417Z,23.68
2024-04-11T08:56:44.452Z,23.65
2024-04-11T08:57:44.419Z,23.65
2024-04-11T08:58:44.413Z,23.66
2024-04-11T08:59:45.550Z,23.72
2024-04-11T09:00:44.471Z,23.74
2024-04-11T09:01:44.448Z,23.74
2024-04-11T09:02:44.461Z,23.76
2024-04-11T09:03:44.491Z,23.79
2024-04-11T09:04:45.446Z,23.80
2024-04-11T09:05:45.625Z,23.82
2024-04-11T09:06:44.449Z,23.82
2024-04-11T09:07:44.472Z,23.82
2024-04-11T09:08:44.520Z,23.76
2024-04-11T09:09:44.547Z,23.77
2024-04-11T09:10:44.654Z,23.80
2024-04-11T09:11:44.719Z,23.80
2024-04-11T09:12:44.749Z,23.80
2024-04-11T09:13:44.818Z,23.82
2024-04-11T09:14:44.885Z,23.84
2024-04-11T09:15:44.932Z,23.86
2024-04-11T09:16:44.940Z,23.83
2024-04-11T09:17:45.238Z,23.80
2024-04-11T09:18:45.078Z,23.84
2024-04-11T09:19:45.166Z,23.87
2024-04-11T09:20:45.268Z,23.90
2024-04-11T09:21:45.401Z,23.90
2024-04-11T09:22:45.404Z,23.89
2024-04-11T09:23:45.503Z,23.95
2024-04-11T09:24:45.736Z,23.95
2024-04-11T09:25:45.656Z,23.99
2024-04-11T09:26:45.821Z,24.04
2024-04-11T09:27:45.900Z,24.04
2024-04-11T09:28:46.013Z,24.07
2024-04-11T09:29:46.186Z,24.07
2024-04-11T09:30:46.288Z,24.06
2024-04-11T09:31:46.378Z,24.09
2024-04-11T09:32:46.611Z,24.11
2024-04-11T09:33:46.817Z,24.14
2024-04-11T09:34:46.742Z,24.16
2024-04-11T09:35:46.920Z,24.21
2024-04-11T09:36:46.961Z,24.24
2024-04-11T09:37:47.074Z,24.23
2024-04-11T09:38:47.247Z,24.25
2024-04-11T09:39:47.962Z,24.31
2024-04-11T09:40:47.355Z,24.31
2024-04-11T09:41:47.536Z,24.35
2024-04-11T09:42:47.623Z,24.34
2024-04-11T09:43:47.753Z,24.44
2024-04-11T09:44:47.923Z,24.45
2024-04-11T09:45:48.035Z,24.50
2024-04-11T09:46:48.258Z,24.50
2024-04-11T09:47:48.275Z,24.50
2024-04-11T09:48:48.446Z,24.51
2024-04-11T09:49:48.425Z,24.52
2024-04-11T09:50:48.510Z,24.50
2024-04-11T09:51:48.586Z,24.50
2024-04-11T09:52:51.649Z,24.48
2024-04-11T09:53:48.714Z,24.52
2024-04-11T09:54:48.732Z,24.51
2024-04-11T09:55:48.701Z,24.58
2024-04-11T09:56:48.740Z,24.61
2024-04-11T09:57:48.701Z,24.64
2024-04-11T09:58:48.704Z,24.71
2024-04-11T09:59:50.394Z,24.73
2024-04-11T10:00:48.750Z,24.75
2024-04-11T10:01:48.714Z,24.81
2024-04-11T10:02:48.821Z,24.83
2024-04-11T10:03:48.755Z,24.85
2024-04-11T10:04:48.722Z,24.87
2024-04-11T10:05:48.755Z,24.93
2024-04-11T10:06:48.726Z,24.97
2024-04-11T10:07:48.707Z,25.02
2024-04-11T10:08:48.920Z,25.06
2024-04-11T10:09:48.704Z,25.09
2024-04-11T10:10:48.714Z,25.13
2024-04-11T10:11:48.878Z,25.11
2024-04-11T10:12:48.725Z,25.14
2024-04-11T10:13:48.726Z,25.18
2024-04-11T10:14:48.756Z,25.21
2024-04-11T10:15:48.731Z,25.21
2024-04-11T10:16:48.721Z,25.20
2024-04-11T10:17:48.955Z,25.21
2024-04-11T10:18:49.765Z,25.27
2024-04-11T10:19:48.798Z,25.30
2024-04-11T10:20:48.746Z,25.33
2024-04-11T10:21:53.898Z,25.37
2024-04-11T10:22:49.719Z,25.40
2024-04-11T10:23:48.743Z,25.41
2024-04-11T10:24:48.727Z,25.44
2024-04-11T10:25:48.738Z,25.44
2024-04-11T10:26:48.992Z,25.47
2024-04-11T10:27:48.740Z,25.47
2024-04-11T10:28:48.726Z,25.49
2024-04-11T10:29:49.261Z,25.51
2024-04-11T10:30:48.744Z,25.52
2024-04-11T10:31:48.725Z,25.55
2024-04-11T10:32:49.032Z,25.57
2024-04-11T10:33:49.000Z,25.57
2024-04-11T10:34:48.739Z,25.60
2024-04-11T10:35:48.830Z,25.58
2024-04-11T10:36:48.764Z,25.60
2024-04-11T10:37:48.817Z,25.61
2024-04-11T10:38:48.932Z,25.61
2024-04-11T10:39:48.919Z,25.62
2024-04-11T10:40:48.927Z,25.65
2024-04-11T10:41:49.021Z,25.65
2024-04-11T10:42:56.118Z,25.73
2024-04-11T10:43:49.964Z,25.75
2024-04-11T10:44:49.020Z,25.65
2024-04-11T10:45:49.009Z,25.61
2024-04-11T10:46:48.986Z,25.61
2024-04-11T10:47:49.184Z,25.57
2024-04-11T10:48:49.103Z,25.64
2024-04-11T10:49:48.983Z,25.62
2024-04-11T10:50:49.082Z,25.65
2024-04-11T10:51:48.986Z,25.66
2024-04-11T10:52:48.979Z,25.71
2024-04-11T10:53:49.055Z,25.75
2024-04-11T10:54:48.989Z,25.79
2024-04-11T10:55:49.037Z,25.83
2024-04-11T10:56:49.145Z,25.88
2024-04-11T10:57:49.181Z,25.90
2024-04-11T10:58:49.248Z,25.95
2024-04-11T10:59:49.324Z,25.95
2024-04-11T11:00:49.410Z,26.02
2024-04-11T11:01:56.146Z,26.03
2024-04-11T11:02:50.586Z,26.07
2024-04-11T11:03:50.094Z,26.10
2024-04-11T11:04:49.525Z,26.10
2024-04-11T11:05:49.562Z,26.15
2024-04-11T11:06:49.525Z,26.15
2024-04-11T11:07:49.532Z,26.16
2024-04-11T11:08:49.540Z,26.19
2024-04-11T11:09:49.530Z,26.21
2024-04-11T11:10:49.524Z,26.21
2024-04-11T11:11:49.709Z,26.28
2024-04-11T11:12:49.710Z,26.28
2024-04-11T11:13:49.791Z,26.33
2024-04-11T11:14:49.917Z,26.37
2024-04-11T11:15:50.051Z,26.40
2024-04-11T11:16:50.084Z,26.43
2024-04-11T11:17:50.255Z,26.45
2024-04-11T11:18:50.304Z,26.50
2024-04-11T11:19:50.404Z,26.51
2024-04-11T11:20:50.557Z,26.54
2024-04-11T11:21:50.590Z,26.59
2024-04-11T11:22:50.724Z,26.62
2024-04-11T11:23:50.845Z,26.62
2024-04-11T11:24:50.922Z,26.68
2024-04-11T11:25:51.002Z,26.70
2024-04-11T11:26:51.178Z,26.74
2024-04-11T11:27:51.236Z,26.75
2024-04-11T11:28:51.296Z,26.78
2024-04-11T11:29:51.403Z,26.79
2024-04-11T11:30:51.504Z,26.83
2024-04-11T11:31:51.680Z,26.86
2024-04-11T11:32:51.804Z,26.89
2024-04-11T11:33:51.918Z,26.86
2024-04-11T11:34:51.914Z,26.92
2024-04-11T11:35:52.150Z,26.96
2024-04-11T11:36:52.123Z,26.99
2024-04-11T11:37:52.182Z,26.99
2024-04-11T11:38:52.316Z,26.99
2024-04-11T11:39:52.638Z,26.99
2024-04-11T11:40:52.462Z,26.99
2024-04-11T11:41:52.571Z,26.99
2024-04-11T11:42:52.655Z,26.98
2024-04-11T11:43:52.760Z,26.98
2024-04-11T11:44:52.962Z,26.98
2024-04-11T11:45:52.954Z,26.95
2024-04-11T11:46:53.138Z,26.95
2024-04-11T11:47:53.253Z,26.89
2024-04-11T11:48:53.376Z,26.86
2024-04-11T11:49:53.393Z,26.86
2024-04-11T11:50:53.565Z,26.86
2024-04-11T11:51:53.577Z,26.83
2024-04-11T11:52:55.862Z,26.81
2024-04-11T11:53:53.750Z,26.79
2024-04-11T11:54:53.718Z,26.83
2024-04-11T11:55:59.280Z,26.79
2024-04-11T11:56:54.796Z,26.74
2024-04-11T11:57:53.703Z,26.67
2024-04-11T11:58:53.710Z,26.61
2024-04-11T11:59:53.783Z,26.59
2024-04-11T12:00:53.737Z,26.56
2024-04-11T12:01:53.755Z,26.54
2024-04-11T12:02:53.780Z,26.50
2024-04-11T12:03:53.818Z,26.45
2024-04-11T12:04:54.001Z,26.41
2024-04-11T12:05:54.109Z,26.33
2024-04-11T12:06:53.907Z,26.33
2024-04-11T12:07:53.974Z,26.31
2024-04-11T12:08:54.030Z,26.27
2024-04-11T12:09:54.068Z,26.24
2024-04-11T12:10:54.171Z,26.21
2024-04-11T12:11:54.190Z,26.19
2024-04-11T12:12:56.658Z,26.20
2024-04-11T12:13:54.200Z,26.20
2024-04-11T12:14:54.211Z,26.12
2024-04-11T12:15:54.209Z,26.10
2024-04-11T12:16:54.286Z,26.03
2024-04-11T12:17:54.297Z,25.99
2024-04-11T12:18:54.211Z,25.96
2024-04-11T12:19:54.198Z,25.95
2024-04-11T12:20:54.413Z,25.95
2024-04-11T12:21:54.191Z,25.95
2024-04-11T12:22:54.220Z,25.95
2024-04-11T12:23:54.375Z,25.95
2024-04-11T12:24:54.196Z,26.00
2024-04-11T12:25:54.201Z,26.02
2024-04-11T12:26:54.301Z,26.07
2024-04-11T12:27:54.183Z,26.13
2024-04-11T12:28:54.193Z,26.21
2024-04-11T12:29:54.219Z,26.26
2024-04-11T12:31:03.822Z,26.31
2024-04-11T12:31:55.199Z,26.40
2024-04-11T12:32:54.389Z,26.44
2024-04-11T12:33:54.350Z,26.48
2024-04-11T12:34:54.226Z,26.58
2024-04-11T12:35:54.265Z,26.62
2024-04-11T12:36:54.244Z,26.70
2024-04-11T12:37:54.228Z,26.75
2024-04-11T12:38:54.280Z,26.78
2024-04-11T12:39:54.344Z,26.83
2024-04-11T12:40:54.239Z,26.86
2024-04-11T12:41:54.347Z,26.89
2024-04-11T12:42:54.422Z,26.96
2024-04-11T12:43:54.505Z,26.95
2024-04-11T12:44:54.622Z,26.98
2024-04-11T12:45:54.693Z,27.02
2024-04-11T12:46:55.337Z,27.07
2024-04-11T12:47:54.883Z,27.10
2024-04-11T12:48:54.937Z,27.17
2024-04-11T12:49:54.779Z,27.23
2024-04-11T12:50:54.858Z,27.26
2024-04-11T12:51:54.834Z,27.33
2024-04-11T12:52:54.873Z,27.38
2024-04-11T12:53:54.959Z,27.44